Berkley, MI

5:00 PM EDT on September 01, 2015 (GMT -0400)
N Crooks / W Maple | | Change Station
CLOSE
Current Station
Personal Weather Station
Location: Clawson, MI
Elevation: 702 ft
Nearby Weather Stations

Elev 702 ft 42.55 °N, 83.16 °W | Updated 6 seconds ago

Scattered Clouds
Scattered Clouds
89.0 °F
Feels Like 94 °F
N
4.0
Wind Variable Wind from SW
Gusts 4.0 mph

Today
High -- | Low -- °F
--% Chance of Precip.
Yesterday
High -- | Low -- °F
Precip. -- in
6:57 AM 8:07 PM
Waning Gibbous, 86% visible
Pressure 30.05 in
Visibility 10.0 miles
Clouds Scattered Clouds 5000 ft
Scattered Clouds 7500 ft
Scattered Clouds 8500 ft
Heat Index 94 °F
Dew Point 70 °F
Humidity 54%
Rainfall 0.00 in
Snow Depth Not available.
UV 3 out of 12
Pollen 7.00 out of 12
Air Quality Not available.
Flu Activity Not available.
METAR KVLL 012054Z AUTO 19006KT 10SM SCT050 SCT075 SCT085 32/19 A3005 RMK AO2 T03210185
Pressure 30.05 in
Visibility 10.0 miles
Clouds Scattered Clouds 5000 ft
Scattered Clouds 7500 ft
Scattered Clouds 8500 ft
Heat Index 94 °F
Dew Point 70 °F
Humidity 54%
Rainfall 0.00 in
Snow Depth Not available.
UV 3 out of 12
Pollen 7.00 out of 12
Air Quality Not available.
Flu Activity Not available.
METAR KVLL 012054Z AUTO 19006KT 10SM SCT050 SCT075 SCT085 32/19 A3005 RMK AO2 T03210185

10-Day Weather Forecast

×

Almanac

Astronomy

Sep. 01, 2015 Rise Set
Actual Time
Civil Twilight
Nautical Twilight
Astronomical Twilight
Moon
Length of Visible Light
Length of Day
Tomorrow will be .
, % of the Moon is Illuminated

Today's Extremes

State Highs State Lows

Community

WunderPhotos

Upload Photos

1,851,616 photos uploaded!

WunderBlogs® & News

Nearby

Air Quality

  Air Quality AQ Index Pollutant
Not available.

Snow Depth

Station Depth Elevation

Earthquake Activity

City Distance Mag. Time & Date
Minimum magnitude displayed is 2.5.

Coastal Water Temperatures

Place Temperature

Stations

Nearby Weather Stations

Station Location Temp. Windchill Dew Point Humidity Wind Precip. Elev Updated Type